Time;durP1;ratioP1;P1;durP2;ratioP2;P2;SDS_P1;SDS_P2;PMS_P1;PMS_P2;Temp;Humidity;BMP_temperature;BMP_pressure;BME280_temperature;BME280_humidity;BME280_pressure;Samples;Min_cycle;Max_cycle;Signal;HPM_P1;HPM_P2
2022/11/14 00:00:54;;;;;;;28.75;14.85;;;;;;;7.64;100.00;101246.34;5021460;28;20232;-71
2022/11/14 00:03:20;;;;;;;27.05;14.68;;;;;;;7.66;100.00;101248.72;5041538;28;20135;-71
2022/11/14 00:05:47;;;;;;;28.50;14.52;;;;;;;7.62;100.00;101248.66;5038578;28;20064;-71
2022/11/14 00:08:19;;;;;;;28.52;14.88;;;;;;;7.57;100.00;101237.94;5029098;28;20068;-73
2022/11/14 00:10:47;;;;;;;30.42;14.07;;;;;;;7.55;100.00;101240.28;5031765;28;20056;-73
2022/11/14 00:13:14;;;;;;;27.02;14.23;;;;;;;7.52;100.00;101237.44;5032158;28;20497;-72
2022/11/14 00:15:41;;;;;;;28.70;14.48;;;;;;;7.41;100.00;101226.22;5006288;28;20056;-72
2022/11/14 00:18:08;;;;;;;28.95;16.05;;;;;;;7.41;100.00;101236.44;5044047;28;20060;-72
2022/11/14 00:20:35;;;;;;;30.98;15.68;;;;;;;7.36;100.00;101234.00;5041378;28;20057;-71
2022/11/14 00:23:01;;;;;;;32.45;15.65;;;;;;;7.35;100.00;101232.38;5029864;28;20049;-73
2022/11/14 00:25:28;;;;;;;27.90;14.18;;;;;;;7.34;100.00;101230.78;5035313;28;20052;-72
2022/11/14 00:27:59;;;;;;;28.10;14.88;;;;;;;7.26;100.00;101240.06;5033826;28;20052;-73
2022/11/14 00:30:27;;;;;;;34.40;15.63;;;;;;;7.21;100.00;101226.59;5050474;28;20056;-73
2022/11/14 00:32:53;;;;;;;29.80;16.23;;;;;;;7.17;100.00;101236.72;5036589;28;20045;-73
2022/11/14 00:35:20;;;;;;;28.15;15.90;;;;;;;7.11;100.00;101233.47;5002298;28;20052;-73
2022/11/14 00:37:46;;;;;;;31.08;15.70;;;;;;;7.05;100.00;101223.91;5017068;28;20064;-72
2022/11/14 00:40:13;;;;;;;32.30;16.42;;;;;;;7.05;100.00;101226.66;5011668;28;20052;-71
2022/11/14 00:42:40;;;;;;;34.78;16.48;;;;;;;7.07;100.00;101220.78;5025699;28;20045;-71
2022/11/14 00:45:07;;;;;;;30.13;16.52;;;;;;;7.07;100.00;101221.59;5032043;28;20078;-73
2022/11/14 00:47:33;;;;;;;31.42;16.67;;;;;;;7.08;100.00;101216.88;5036297;28;20082;-71
2022/11/14 00:50:00;;;;;;;29.58;15.32;;;;;;;7.09;100.00;101218.50;5036438;28;20052;-71
2022/11/14 00:52:26;;;;;;;32.97;16.35;;;;;;;7.01;100.00;101211.22;5034142;28;20048;-73
2022/11/14 00:54:53;;;;;;;30.63;16.23;;;;;;;6.96;100.00;101209.56;5008661;28;20809;-73
2022/11/14 00:57:19;;;;;;;32.53;16.73;;;;;;;6.90;100.00;101199.22;5011201;28;20057;-71
2022/11/14 00:59:46;;;;;;;31.45;16.55;;;;;;;6.86;100.00;101203.84;5012982;28;20053;-72
2022/11/14 01:02:12;;;;;;;30.08;15.60;;;;;;;6.84;100.00;101208.91;5029496;28;20056;-73
2022/11/14 01:04:39;;;;;;;29.70;16.17;;;;;;;6.79;100.00;101192.69;4999507;28;20053;-73
2022/11/14 01:07:05;;;;;;;30.30;15.95;;;;;;;6.78;100.00;101196.59;5011702;28;20064;-72
2022/11/14 01:09:32;;;;;;;29.80;15.25;;;;;;;6.77;100.00;101195.00;5011155;28;20080;-72
2022/11/14 01:11:58;;;;;;;27.90;14.63;;;;;;;6.75;100.00;101202.81;5011016;28;20058;-73
2022/11/14 01:14:25;;;;;;;28.85;16.42;;;;;;;6.75;100.00;101191.81;5028646;28;20066;-72
2022/11/14 01:16:51;;;;;;;28.02;15.23;;;;;;;6.67;100.00;101181.81;5035265;28;20680;-73
2022/11/14 01:19:18;;;;;;;31.83;16.10;;;;;;;6.64;100.00;101177.81;5031431;28;20057;-73
2022/11/14 01:21:44;;;;;;;30.13;16.27;;;;;;;6.62;100.00;101171.09;5028161;28;20130;-72
2022/11/14 01:24:10;;;;;;;33.08;16.30;;;;;;;6.55;100.00;101162.69;5018273;28;20052;-73
2022/11/14 01:26:37;;;;;;;32.88;17.02;;;;;;;6.52;100.00;101168.91;5020490;28;20060;-73
2022/11/14 01:29:03;;;;;;;30.70;15.82;;;;;;;6.49;100.00;101161.38;5027592;28;20065;-73
2022/11/14 01:31:30;;;;;;;30.30;15.90;;;;;;;6.42;100.00;101161.22;5039791;28;20048;-73
2022/11/14 01:33:56;;;;;;;29.27;15.93;;;;;;;6.37;100.00;101164.22;5036044;28;20048;-72
2022/11/14 01:36:23;;;;;;;31.25;17.23;;;;;;;6.32;100.00;101157.09;5012468;28;20061;-72
2022/11/14 01:38:53;;;;;;;34.60;17.25;;;;;;;6.25;100.00;101154.19;5012055;28;20050;-73
2022/11/14 01:41:20;;;;;;;32.63;16.45;;;;;;;6.19;100.00;101149.28;5017651;28;20717;-72
2022/11/14 01:43:47;;;;;;;32.03;17.10;;;;;;;6.08;100.00;101140.81;5034032;28;20055;-73
2022/11/14 01:46:20;;;;;;;34.10;18.45;;;;;;;6.04;100.00;101142.66;5023688;28;20759;-73
2022/11/14 01:48:55;;;;;;;30.77;16.10;;;;;;;6.04;100.00;101137.16;5037756;28;20055;-72
2022/11/14 01:51:28;;;;;;;36.47;17.75;;;;;;;5.97;100.00;101134.25;5001686;28;20057;-70
2022/11/14 01:53:57;;;;;;;32.40;17.08;;;;;;;5.97;100.00;101117.00;5028998;28;20056;-71
2022/11/14 01:56:31;;;;;;;34.50;17.70;;;;;;;5.99;100.00;101120.16;5025991;28;20107;-71
2022/11/14 01:59:04;;;;;;;34.50;18.55;;;;;;;5.98;100.00;101118.59;5047315;28;20064;-72
2022/11/14 02:01:33;;;;;;;32.33;16.95;;;;;;;5.96;100.00;101120.88;5046352;28;20048;-73
2022/11/14 02:04:03;;;;;;;32.47;16.33;;;;;;;5.95;100.00;101117.34;5037009;28;20068;-73
2022/11/14 02:06:33;;;;;;;32.10;18.20;;;;;;;5.91;100.00;101119.22;5019120;28;20060;-71
2022/11/14 02:09:03;;;;;;;35.05;18.00;;;;;;;5.88;100.00;101116.38;5029377;28;20045;-71
2022/11/14 02:11:33;;;;;;;34.15;18.38;;;;;;;5.84;100.00;101112.75;5028402;28;20048;-72
2022/11/14 02:14:00;;;;;;;33.55;17.83;;;;;;;5.85;100.00;101112.41;5030401;28;20068;-74
2022/11/14 02:16:27;;;;;;;33.25;17.17;;;;;;;5.81;100.00;101108.78;5022646;28;20068;-73
2022/11/14 02:18:54;;;;;;;33.05;17.98;;;;;;;5.75;100.00;101114.84;5023933;28;20053;-71
2022/11/14 02:21:20;;;;;;;33.17;16.98;;;;;;;5.73;100.00;101111.69;5017193;28;20071;-72
2022/11/14 02:23:47;;;;;;;32.45;16.50;;;;;;;5.69;100.00;101106.09;5015410;28;20057;-71
2022/11/14 02:26:18;;;;;;;35.00;16.80;;;;;;;5.69;100.00;101108.84;5027662;28;20049;-72
2022/11/14 02:28:45;;;;;;;34.20;17.10;;;;;;;5.67;100.00;101107.59;5033951;28;20056;-71
2022/11/14 02:31:12;;;;;;;33.38;17.02;;;;;;;5.65;100.00;101109.91;5029785;28;20768;-73
2022/11/14 02:33:38;;;;;;;33.97;18.63;;;;;;;5.61;100.00;101109.00;5030569;28;20049;-72
2022/11/14 02:36:05;;;;;;;34.03;17.98;;;;;;;5.58;100.00;101106.97;5027420;28;20060;-70
2022/11/14 02:38:32;;;;;;;31.08;17.20;;;;;;;5.58;100.00;101116.03;5038428;28;20250;-72
2022/11/14 02:40:59;;;;;;;33.47;16.95;;;;;;;5.55;100.00;101107.69;5034659;28;20799;-71
2022/11/14 02:43:26;;;;;;;35.05;18.52;;;;;;;5.45;100.00;101100.78;5036429;28;20127;-71
2022/11/14 02:45:52;;;;;;;33.38;17.77;;;;;;;5.38;100.00;101095.91;5036337;28;20778;-72
2022/11/14 02:48:19;;;;;;;36.15;18.13;;;;;;;5.30;100.00;101090.59;5053218;28;20060;-72
2022/11/14 02:50:48;;;;;;;35.53;18.00;;;;;;;5.24;100.00;101090.03;5053717;28;20064;-73
2022/11/14 02:53:15;;;;;;;34.80;18.10;;;;;;;5.28;100.00;101087.41;5024205;28;20045;-73
2022/11/14 02:55:42;;;;;;;33.15;17.25;;;;;;;5.28;100.00;101090.16;5035791;28;20432;-71
2022/11/14 02:58:08;;;;;;;35.30;16.60;;;;;;;5.31;100.00;101084.72;5046373;28;20052;-70
2022/11/14 03:00:35;;;;;;;33.90;17.13;;;;;;;5.31;100.00;101076.50;5054934;28;20049;-71
2022/11/14 03:03:13;;;;;;;35.70;17.35;;;;;;;5.33;100.00;101079.69;5056416;28;20053;-71
2022/11/14 03:05:39;;;;;;;34.63;17.42;;;;;;;5.34;100.00;101072.28;5045459;28;20055;-70
2022/11/14 03:08:06;;;;;;;33.10;16.90;;;;;;;5.32;100.00;101071.81;5071781;28;20679;-72
2022/11/14 03:10:32;;;;;;;33.30;17.65;;;;;;;5.33;100.00;101070.66;5049814;28;20064;-71
2022/11/14 03:12:59;;;;;;;31.38;16.45;;;;;;;5.33;100.00;101060.50;5031908;28;20049;-71
2022/11/14 03:15:25;;;;;;;34.15;17.52;;;;;;;5.29;100.00;101065.09;5032886;28;20060;-71
2022/11/14 03:17:52;;;;;;;33.50;16.27;;;;;;;5.22;100.00;101064.13;5042784;28;20056;-71
2022/11/14 03:20:18;;;;;;;33.83;16.65;;;;;;;5.20;100.00;101067.22;5059854;28;20076;-70
2022/11/14 03:22:44;;;;;;;31.98;15.65;;;;;;;5.24;100.00;101075.53;5051986;28;20060;-75
2022/11/14 03:25:11;;;;;;;31.63;16.55;;;;;;;5.19;100.00;101057.41;5050675;28;20656;-70
2022/11/14 03:27:37;;;;;;;33.53;17.77;;;;;;;5.23;100.00;101069.25;5048250;28;20061;-71
2022/11/14 03:30:04;;;;;;;39.78;18.48;;;;;;;5.23;100.00;101071.19;5050880;28;20064;-71
2022/11/14 03:32:31;;;;;;;33.45;18.25;;;;;;;5.19;100.00;101068.38;5058615;28;20459;-70
2022/11/14 03:34:57;;;;;;;35.22;18.05;;;;;;;5.18;100.00;101066.78;5049103;28;20045;-71
2022/11/14 03:37:24;;;;;;;32.92;17.33;;;;;;;5.18;100.00;101071.47;5031491;28;20510;-72
2022/11/14 03:39:50;;;;;;;36.67;17.58;;;;;;;5.16;100.00;101071.00;5030576;28;20494;-72
2022/11/14 03:42:17;;;;;;;35.42;17.38;;;;;;;5.13;100.00;101060.75;5041990;28;20061;-72
2022/11/14 03:44:43;;;;;;;36.15;16.50;;;;;;;5.12;100.00;101059.94;5055249;28;20064;-71
2022/11/14 03:47:10;;;;;;;34.58;16.95;;;;;;;5.13;100.00;101075.25;5057861;28;20053;-72
2022/11/14 03:49:36;;;;;;;34.95;17.52;;;;;;;5.03;100.00;101064.81;5070427;28;20052;-71
2022/11/14 03:52:03;;;;;;;34.88;17.08;;;;;;;4.94;100.00;101063.38;5071035;28;20547;-71
2022/11/14 03:54:29;;;;;;;33.47;17.75;;;;;;;4.89;100.00;101058.13;5065257;28;20051;-70
2022/11/14 03:56:56;;;;;;;33.80;16.85;;;;;;;4.85;100.00;101055.31;5051033;28;20057;-71
2022/11/14 03:59:22;;;;;;;35.38;18.27;;;;;;;4.86;100.00;101051.41;5049278;28;20053;-72
2022/11/14 04:01:48;;;;;;;38.33;18.33;;;;;;;4.83;100.00;101067.78;5053304;28;20056;-72
2022/11/14 04:04:15;;;;;;;35.80;17.75;;;;;;;4.78;100.00;101054.31;5068884;28;20501;-71
2022/11/14 04:06:41;;;;;;;34.78;16.98;;;;;;;4.89;100.00;101066.34;5064898;28;20052;-72
2022/11/14 04:09:09;;;;;;;35.30;18.10;;;;;;;4.93;100.00;101061.78;5050771;28;20053;-71
2022/11/14 04:11:35;;;;;;;40.85;20.00;;;;;;;4.94;100.00;101058.69;5050032;28;20110;-72
2022/11/14 04:14:02;;;;;;;32.72;17.17;;;;;;;4.89;100.00;101044.41;5057256;28;20511;-70
2022/11/14 04:16:28;;;;;;;33.08;17.98;;;;;;;4.93;100.00;101054.34;5060392;28;20057;-70
2022/11/14 04:18:55;;;;;;;32.40;17.65;;;;;;;4.91;100.00;101045.69;5070768;28;20052;-70
2022/11/14 04:21:21;;;;;;;32.25;17.05;;;;;;;4.91;100.00;101053.91;5047838;28;20052;-71
2022/11/14 04:23:48;;;;;;;33.20;17.05;;;;;;;4.91;100.00;101048.44;5055313;28;20115;-71
2022/11/14 04:26:14;;;;;;;35.90;16.90;;;;;;;4.92;100.00;101041.78;5068658;28;20048;-71
2022/11/14 04:28:40;;;;;;;39.78;19.33;;;;;;;4.92;100.00;101030.81;5070756;28;20056;-70
2022/11/14 04:31:07;;;;;;;35.40;18.08;;;;;;;4.90;100.00;101030.38;5059163;28;20122;-71
2022/11/14 04:33:33;;;;;;;33.65;18.00;;;;;;;4.88;100.00;101023.66;5062071;28;20052;-71
2022/11/14 04:36:00;;;;;;;34.25;17.92;;;;;;;4.88;100.00;101024.44;5057629;28;20502;-70
2022/11/14 04:38:26;;;;;;;34.15;17.58;;;;;;;4.86;100.00;101028.69;5055641;28;20098;-72
2022/11/14 04:40:54;;;;;;;34.30;17.95;;;;;;;4.85;100.00;101030.63;5049159;28;20053;-69
2022/11/14 04:43:21;;;;;;;34.55;19.15;;;;;;;4.88;100.00;101018.97;5050240;28;20053;-70
2022/11/14 04:45:47;;;;;;;35.72;17.52;;;;;;;4.88;100.00;101027.19;5050002;28;20069;-71
2022/11/14 04:48:14;;;;;;;36.35;18.27;;;;;;;4.83;100.00;101024.69;5048950;28;20052;-71
2022/11/14 04:50:40;;;;;;;35.83;17.95;;;;;;;4.81;100.00;101027.00;5043393;28;20053;-70
2022/11/14 04:53:07;;;;;;;34.90;18.63;;;;;;;4.83;100.00;101032.13;5055068;28;20059;-69
2022/11/14 04:55:33;;;;;;;35.03;17.75;;;;;;;4.82;100.00;101036.00;5050133;28;20049;-71
2022/11/14 04:58:00;;;;;;;32.33;17.42;;;;;;;4.80;100.00;101027.34;5032170;28;20599;-73
2022/11/14 05:00:26;;;;;;;38.72;17.60;;;;;;;4.80;100.00;101014.44;5045146;28;20052;-70
2022/11/14 05:02:52;;;;;;;34.40;17.92;;;;;;;4.78;100.00;101021.41;5048797;28;20055;-70
2022/11/14 05:05:19;;;;;;;36.72;18.35;;;;;;;4.76;100.00;101021.00;5041462;28;20116;-70
2022/11/14 05:07:45;;;;;;;36.20;17.95;;;;;;;4.75;100.00;101014.69;5055646;28;20057;-69
2022/11/14 05:10:12;;;;;;;35.83;18.45;;;;;;;4.71;100.00;101015.75;5048685;28;20516;-70
2022/11/14 05:12:38;;;;;;;34.63;18.67;;;;;;;4.71;100.00;101005.59;5049690;28;20508;-71
2022/11/14 05:15:05;;;;;;;38.47;19.67;;;;;;;4.73;100.00;101003.28;5049576;28;20053;-70
2022/11/14 05:17:32;;;;;;;36.58;18.90;;;;;;;4.73;100.00;101002.50;5043553;28;20115;-71
2022/11/14 05:19:58;;;;;;;37.97;19.55;;;;;;;4.72;100.00;101001.69;5044602;28;20052;-71
2022/11/14 05:22:24;;;;;;;37.65;18.33;;;;;;;4.72;100.00;100998.94;5043855;28;20508;-71
2022/11/14 05:24:51;;;;;;;38.25;18.85;;;;;;;4.73;100.00;100992.31;5053888;28;20099;-71
2022/11/14 05:27:17;;;;;;;37.40;20.27;;;;;;;4.72;100.00;100998.94;5047165;28;20053;-71
2022/11/14 05:29:44;;;;;;;40.15;20.17;;;;;;;4.71;100.00;100994.63;5048015;28;20072;-71
2022/11/14 05:32:10;;;;;;;36.47;17.83;;;;;;;4.68;100.00;100989.03;5041377;28;20046;-72
2022/11/14 05:34:41;;;;;;;39.83;19.10;;;;;;;4.63;100.00;100984.59;5049434;28;20048;-69
2022/11/14 05:37:08;;;;;;;38.47;20.33;;;;;;;4.64;100.00;100988.94;5047373;28;20605;-73
2022/11/14 05:39:34;;;;;;;37.35;18.58;;;;;;;4.65;100.00;100987.00;5029959;28;20068;-72
2022/11/14 05:42:01;;;;;;;40.10;19.05;;;;;;;4.62;100.00;100976.72;5049492;28;20389;-71
2022/11/14 05:44:27;;;;;;;38.70;18.58;;;;;;;4.63;100.00;100987.34;5015208;28;20041;-72
2022/11/14 05:46:54;;;;;;;38.15;18.38;;;;;;;4.60;100.00;100982.59;5034744;28;20045;-71
2022/11/14 05:49:20;;;;;;;36.67;17.92;;;;;;;4.60;100.00;100979.84;5036425;28;20786;-71
2022/11/14 05:51:47;;;;;;;33.53;17.25;;;;;;;4.55;100.00;100982.81;5065511;28;20049;-69
2022/11/14 05:54:14;;;;;;;39.00;18.00;;;;;;;4.57;100.00;100988.75;5049282;28;20049;-72
2022/11/14 05:56:40;;;;;;;37.95;17.80;;;;;;;4.54;100.00;100989.47;5031662;28;20049;-72
2022/11/14 05:59:07;;;;;;;35.72;17.63;;;;;;;4.49;100.00;100986.97;5032122;28;20053;-70
2022/11/14 06:01:33;;;;;;;36.08;18.25;;;;;;;4.49;100.00;100983.44;5047792;28;20048;-72
2022/11/14 06:04:00;;;;;;;36.67;17.05;;;;;;;4.48;100.00;100984.56;5052562;28;20033;-72
2022/11/14 06:06:26;;;;;;;33.55;17.52;;;;;;;4.44;100.00;100983.69;5031523;28;20426;-70
2022/11/14 06:08:52;;;;;;;34.78;17.40;;;;;;;4.37;100.00;100976.06;5029581;28;20458;-71
2022/11/14 06:11:20;;;;;;;37.17;18.65;;;;;;;4.27;100.00;100973.03;5024656;28;20049;-70
2022/11/14 06:13:46;;;;;;;35.90;18.10;;;;;;;4.27;100.00;100981.25;5060793;28;20531;-71
2022/11/14 06:16:16;;;;;;;38.33;18.63;;;;;;;4.27;100.00;100973.84;5066431;28;20450;-69
2022/11/14 06:18:43;;;;;;;32.95;17.17;;;;;;;4.22;100.00;100965.84;5051886;28;20053;-71
2022/11/14 06:21:16;;;;;;;42.00;20.40;;;;;;;4.24;100.00;100980.00;5033332;28;20103;-69
2022/11/14 06:23:43;;;;;;;35.55;19.35;;;;;;;4.30;100.00;100984.09;5058900;28;20046;-70
2022/11/14 06:26:23;;;;;;;37.40;18.73;;;;;;;4.31;100.00;100984.88;5052252;28;20366;-71
2022/11/14 06:28:51;;;;;;;37.25;18.88;;;;;;;4.31;100.00;100980.19;5040300;28;20056;-72
2022/11/14 06:31:19;;;;;;;37.28;18.42;;;;;;;4.32;100.00;100984.53;5063432;28;20098;-72
2022/11/14 06:33:46;;;;;;;36.20;18.05;;;;;;;4.30;100.00;100991.50;5070070;28;20568;-72
2022/11/14 06:36:13;;;;;;;35.85;17.92;;;;;;;4.32;100.00;100987.25;5060137;28;20067;-73
2022/11/14 06:38:40;;;;;;;38.00;18.15;;;;;;;4.32;100.00;100989.22;5048666;28;20083;-71
2022/11/14 06:41:12;;;;;;;37.13;17.85;;;;;;;4.27;100.00;100978.50;5031506;28;20518;-72
2022/11/14 06:43:41;;;;;;;34.67;17.40;;;;;;;4.26;100.00;100972.22;5039362;28;20054;-73
2022/11/14 06:46:10;;;;;;;34.65;17.02;;;;;;;4.22;100.00;100976.81;5034585;28;20111;-72
2022/11/14 06:48:37;;;;;;;38.65;18.70;;;;;;;4.22;100.00;100976.03;5049924;28;20087;-73
2022/11/14 06:51:04;;;;;;;38.00;17.70;;;;;;;4.21;100.00;100991.66;5040387;28;20540;-72
2022/11/14 06:53:34;;;;;;;37.72;18.67;;;;;;;4.25;100.00;100983.56;5068933;28;20441;-71
2022/11/14 06:56:03;;;;;;;36.08;17.60;;;;;;;4.29;100.00;100982.47;5031737;28;20463;-72
2022/11/14 06:58:32;;;;;;;38.38;18.70;;;;;;;4.31;100.00;100982.13;5043213;28;20052;-72
2022/11/14 07:01:10;;;;;;;36.42;18.42;;;;;;;4.28;100.00;100980.91;5035676;28;20118;-72
2022/11/14 07:03:37;;;;;;;39.42;20.42;;;;;;;4.27;100.00;100982.06;5052274;28;20464;-72
2022/11/14 07:06:05;;;;;;;36.60;19.52;;;;;;;4.30;100.00;100981.34;5038171;28;20052;-70
2022/11/14 07:08:32;;;;;;;37.25;19.58;;;;;;;4.33;100.00;100966.97;5052224;28;20052;-71
2022/11/14 07:11:04;;;;;;;41.33;21.10;;;;;;;4.30;100.00;100964.09;5046084;28;20051;-71
2022/11/14 07:13:31;;;;;;;40.95;21.45;;;;;;;4.37;100.00;100976.06;5049173;28;20049;-71
2022/11/14 07:15:59;;;;;;;36.58;19.58;;;;;;;4.43;100.00;100968.41;5051680;28;20152;-72
2022/11/14 07:18:25;;;;;;;41.85;20.33;;;;;;;4.46;100.00;100968.47;5048664;28;20087;-70
2022/11/14 07:20:57;;;;;;;35.78;19.15;;;;;;;4.49;100.00;100976.00;5048785;28;20066;-71
2022/11/14 07:23:24;;;;;;;45.08;19.92;;;;;;;4.51;100.00;100979.19;5051016;28;20071;-72
2022/11/14 07:25:51;;;;;;;37.80;18.73;;;;;;;4.51;100.00;100976.47;5053196;28;20588;-69
2022/11/14 07:28:17;;;;;;;38.63;20.27;;;;;;;4.58;100.00;100970.34;5042320;28;20092;-71
2022/11/14 07:30:44;;;;;;;44.13;21.50;;;;;;;4.57;100.00;100969.59;5056711;28;20052;-71
2022/11/14 07:33:10;;;;;;;42.35;21.67;;;;;;;4.57;100.00;100968.78;5046048;28;20498;-71
2022/11/14 07:35:40;;;;;;;47.15;23.88;;;;;;;4.55;100.00;100971.88;5048493;28;20053;-72
2022/11/14 07:38:06;;;;;;;52.05;23.50;;;;;;;4.58;100.00;100968.44;5041152;28;20637;-72
2022/11/14 07:40:33;;;;;;;39.53;20.15;;;;;;;4.61;100.00;100959.50;5034982;28;20058;-71
2022/11/14 07:43:00;;;;;;;48.40;21.98;;;;;;;4.69;100.00;100955.78;5031704;28;20155;-71
2022/11/14 07:45:28;;;;;;;39.83;21.40;;;;;;;4.72;100.00;100960.56;5034076;28;20059;-72
2022/11/14 07:48:00;;;;;;;41.40;20.70;;;;;;;4.77;100.00;100960.31;5059529;28;20060;-71
2022/11/14 07:50:27;;;;;;;39.58;20.58;;;;;;;4.83;100.00;100974.56;5070001;28;20083;-70
2022/11/14 07:52:56;;;;;;;45.38;23.27;;;;;;;4.87;100.00;100973.47;5047475;28;20060;-71
2022/11/14 07:55:23;;;;;;;42.38;20.45;;;;;;;4.92;100.00;100975.97;5059667;28;20127;-71
2022/11/14 07:57:54;;;;;;;42.80;21.73;;;;;;;4.95;100.00;100972.53;5059170;28;20076;-71
2022/11/14 08:00:20;;;;;;;41.90;22.35;;;;;;;5.00;100.00;100975.00;5052312;28;20433;-71
2022/11/14 08:02:47;;;;;;;37.75;19.48;;;;;;;5.08;100.00;100968.56;5020056;28;20042;-71
2022/11/14 08:05:13;;;;;;;39.70;19.92;;;;;;;5.05;100.00;100972.00;5053530;28;20060;-71
2022/11/14 08:07:40;;;;;;;43.08;20.83;;;;;;;5.10;100.00;100966.25;5048603;28;20063;-71
2022/11/14 08:10:07;;;;;;;40.10;20.67;;;;;;;5.11;100.00;100973.34;5042124;28;20049;-72
2022/11/14 08:12:34;;;;;;;40.53;20.45;;;;;;;5.19;100.00;100971.56;5057441;28;20478;-72
2022/11/14 08:15:00;;;;;;;41.33;20.25;;;;;;;5.28;100.00;100967.50;5039224;28;20045;-72
2022/11/14 08:17:27;;;;;;;37.20;20.35;;;;;;;5.35;100.00;100966.84;5039181;28;20048;-72
2022/11/14 08:19:53;;;;;;;33.70;16.95;;;;;;;5.39;100.00;100967.72;5043382;28;20049;-72
2022/11/14 08:22:20;;;;;;;36.78;17.38;;;;;;;5.28;100.00;100970.22;5056341;28;20417;-72
2022/11/14 08:24:46;;;;;;;38.92;19.77;;;;;;;5.35;100.00;100964.91;5033667;28;20052;-72
2022/11/14 08:27:12;;;;;;;41.92;20.65;;;;;;;5.50;100.00;100959.75;5033840;28;20065;-73
2022/11/14 08:29:39;;;;;;;42.28;20.27;;;;;;;5.61;100.00;100949.81;5029662;28;20048;-71
2022/11/14 08:32:06;;;;;;;35.75;19.60;;;;;;;5.70;100.00;100944.91;5060509;28;20047;-73
2022/11/14 08:34:32;;;;;;;39.88;21.05;;;;;;;5.77;100.00;100939.56;5036117;28;20057;-72
2022/11/14 08:37:00;;;;;;;39.95;21.65;;;;;;;5.88;100.00;100944.19;5036632;28;20141;-72
2022/11/14 08:39:26;;;;;;;38.58;19.67;;;;;;;6.01;100.00;100939.34;5042276;28;20049;-71
2022/11/14 08:41:54;;;;;;;39.03;19.70;;;;;;;6.13;100.00;100952.91;5042621;28;20044;-72
2022/11/14 08:44:21;;;;;;;38.28;18.80;;;;;;;6.26;100.00;100946.91;5047692;28;20126;-72
2022/11/14 08:46:49;;;;;;;38.13;19.20;;;;;;;6.38;100.00;100951.47;5038923;28;20129;-72
2022/11/14 08:49:15;;;;;;;38.90;19.27;;;;;;;6.47;100.00;100938.28;5031183;28;20081;-70
2022/11/14 08:51:42;;;;;;;40.33;20.45;;;;;;;6.58;100.00;100944.78;5031651;28;20057;-70
2022/11/14 08:54:08;;;;;;;36.97;17.75;;;;;;;6.73;100.00;100935.63;5032748;28;20671;-71
2022/11/14 08:56:35;;;;;;;37.28;18.70;;;;;;;6.85;100.00;100932.72;5035526;28;20052;-71
2022/11/14 08:59:03;;;;;;;42.05;20.48;;;;;;;6.96;100.00;100939.94;5053896;28;20072;-70
2022/11/14 09:01:31;;;;;;;35.80;18.70;;;;;;;7.12;100.00;100934.34;5017126;28;20052;-71
2022/11/14 09:03:58;;;;;;;41.50;19.85;;;;;;;7.28;100.00;100938.53;5034911;28;20429;-71
2022/11/14 09:06:26;;;;;;;34.47;17.85;;;;;;;7.46;100.00;100939.59;5029770;28;20045;-71
2022/11/14 09:08:52;;;;;;;40.28;19.83;;;;;;;7.69;100.00;100948.59;5031591;28;20056;-72
2022/11/14 09:11:19;;;;;;;41.47;19.40;;;;;;;7.88;100.00;100937.44;5029830;28;20049;-70
2022/11/14 09:13:45;;;;;;;36.90;17.92;;;;;;;8.05;100.00;100936.06;5033010;28;20076;-71
2022/11/14 09:16:12;;;;;;;37.33;17.88;;;;;;;8.21;100.00;100942.19;5045183;28;20147;-71
2022/11/14 09:18:39;;;;;;;39.60;18.00;;;;;;;8.34;100.00;100935.28;5045229;28;20056;-76
2022/11/14 09:21:07;;;;;;;39.03;19.23;;;;;;;8.53;100.00;100946.09;5035356;28;20049;-72
2022/11/14 09:23:34;;;;;;;35.13;17.33;;;;;;;8.71;100.00;100941.56;5040552;28;20049;-72
2022/11/14 09:26:06;;;;;;;34.47;18.08;;;;;;;8.96;100.00;100941.81;5033758;28;20052;-70
2022/11/14 09:28:33;;;;;;;35.10;18.27;;;;;;;9.17;100.00;100939.22;5039411;28;20531;-72
2022/11/14 09:31:05;;;;;;;36.05;18.25;;;;;;;9.39;100.00;100939.00;5034392;28;20052;-71
2022/11/14 09:33:32;;;;;;;34.13;17.75;;;;;;;9.64;100.00;100930.88;5038810;28;20045;-71
2022/11/14 09:36:00;;;;;;;33.17;17.05;;;;;;;9.84;100.00;100932.19;5035034;28;20057;-70
2022/11/14 09:38:27;;;;;;;32.65;16.02;;;;;;;10.01;100.00;100926.75;5030984;28;20049;-71
2022/11/14 09:41:09;;;;;;;32.58;16.80;;;;;;;10.23;100.00;100928.44;5021974;28;20053;-70
2022/11/14 09:43:51;;;;;;;42.90;16.90;;;;;;;10.45;100.00;100921.78;5036491;28;20830;-70
2022/11/14 09:46:29;;;;;;;32.75;17.65;;;;;;;10.52;100.00;100923.78;5001307;28;20811;-71
2022/11/14 09:48:55;;;;;;;34.35;15.68;;;;;;;10.59;100.00;100923.78;5031740;28;20041;-70
2022/11/14 09:51:34;;;;;;;32.53;16.67;;;;;;;10.53;100.00;100931.69;5042486;28;20124;-73
2022/11/14 09:54:09;;;;;;;30.63;15.75;;;;;;;10.52;100.00;100926.53;5043831;28;20263;-71
2022/11/14 09:56:35;;;;;;;32.90;16.73;;;;;;;10.65;100.00;100933.28;5030980;28;20544;-71
2022/11/14 09:59:02;;;;;;;32.60;14.25;;;;;;;10.75;100.00;100931.72;5042343;28;20049;-70
2022/11/14 10:01:31;;;;;;;29.90;14.55;;;;;;;10.64;100.00;100930.91;5052380;28;20056;-72
2022/11/14 10:04:12;;;;;;;31.10;15.80;;;;;;;10.70;100.00;100932.13;5035973;28;20143;-71
2022/11/14 10:06:52;;;;;;;29.60;13.85;;;;;;;10.61;100.00;100924.19;5025407;28;20051;-72
2022/11/14 10:09:37;;;;;;;31.25;15.73;;;;;;;10.64;100.00;100920.66;5030335;28;20057;-72
2022/11/14 10:12:14;;;;;;;34.45;16.90;;;;;;;10.66;100.00;100925.78;5041269;28;20908;-70
2022/11/14 10:14:50;;;;;;;32.00;16.35;;;;;;;10.64;100.00;100922.63;5026937;28;20096;-71
2022/11/14 10:17:48;;;;;;;28.83;17.15;;;;;;;10.52;100.00;100921.00;5020650;28;20057;-70
2022/11/14 10:20:25;;;;;;;32.95;15.93;;;;;;;10.41;100.00;100915.47;5029234;28;20091;-72
2022/11/14 10:23:12;;;;;;;21.98;11.50;;;;;;;10.35;100.00;100917.03;5029338;28;20827;-72
2022/11/14 10:26:19;;;;;;;32.25;15.68;;;;;;;10.22;100.00;100920.53;5031738;28;20817;-71
2022/11/14 10:29:05;;;;;;;33.45;18.27;;;;;;;10.16;100.00;100919.34;5019912;28;20057;-73
2022/11/14 10:31:50;;;;;;;34.15;16.95;;;;;;;10.13;100.00;100918.13;5010271;28;20684;-71
2022/11/14 10:34:33;;;;;;;36.10;18.70;;;;;;;10.11;100.00;100909.44;5028853;28;20060;-72
2022/11/14 10:37:26;;;;;;;31.88;15.48;;;;;;;10.05;100.00;100918.44;5032506;28;20060;-71
2022/11/14 10:39:59;;;;;;;31.52;15.88;;;;;;;10.13;100.00;100914.59;5035803;28;20050;-71
2022/11/14 10:42:34;;;;;;;30.95;15.27;;;;;;;10.19;100.00;100919.34;5034989;28;20048;-72
2022/11/14 10:45:15;;;;;;;;;;;;;;;10.15;100.00;100910.25;5029225;28;20044;-71
2022/11/14 10:47:48;;;;;;;31.80;15.88;;;;;;;10.14;100.00;100908.66;5025301;28;19925;-71
2022/11/14 10:50:21;;;;;;;31.02;16.02;;;;;;;10.19;100.00;100905.50;5021399;28;20610;-71
2022/11/14 10:52:53;;;;;;;34.20;15.38;;;;;;;10.23;100.00;100903.53;5025750;28;20048;-72
2022/11/14 10:55:20;;;;;;;32.10;15.48;;;;;;;10.26;100.00;100908.28;5033107;28;20050;-71
2022/11/14 10:58:13;;;;;;;35.25;16.08;;;;;;;10.26;100.00;100902.75;5007715;28;20055;-71
2022/11/14 11:00:40;;;;;;;30.58;14.98;;;;;;;10.30;100.00;100917.38;5030276;28;20041;-72
2022/11/14 11:03:06;;;;;;;31.08;15.90;;;;;;;10.26;100.00;100935.94;5026531;28;20130;-72
2022/11/14 11:05:46;;;;;;;28.23;12.90;;;;;;;10.30;100.00;100916.63;5026002;28;20060;-73
2022/11/14 11:11:30;;;;;;;24.80;12.80;;;;;;;10.38;100.00;100913.47;5022953;28;20850;-72
2022/11/14 11:14:00;;;;;;;29.23;14.73;;;;;;;10.38;100.00;100904.38;5038213;28;20053;-71
2022/11/14 11:16:28;;;;;;;25.88;10.85;;;;;;;10.34;100.00;100898.84;5032952;28;20052;-71
2022/11/14 11:19:20;;;;;;;26.23;12.93;;;;;;;10.35;100.00;100889.38;5021978;28;20055;-72